Terminal Aerodrome Forecast
Issued by NWS

Home | Current Version | Previous Version | Text Only | Print | Product List | Glossary On
Versions: 1 2 3 4 5 6 7 8 9 10 11 12 13 14 15 16 17 18 19 20 21
819
FTUS43 KGRB 250037 AAA
TAFCWA
TAF AMD
KCWA 250037Z 2501/2524 13007KT P6SM BKN025 BKN040
     FM250500 13008KT P6SM BKN015 OVC025
     FM251000 14009KT 5SM BR BKN006 OVC012
      TEMPO 2511/2515 3SM SHRA OVC003
     FM251500 17010G17KT 3SM SHRA BR BKN006 OVC012 PROB30 2515/2519
      1SM TSRA BR BKN003 OVC015CB
     FM251900 18010G17KT 4SM BR VCSH SCT007 OVC015
     FM252200 24009KT P6SM SCT015 OVC035
      AMD LTD TO CLD VIS AND WND 2503/2511=

USA.gov is the U.S. government's official web portal to all federal, state and local government web resources and services.